Time;durP1;ratioP1;P1;durP2;ratioP2;P2;SDS_P1;SDS_P2;PMS_P1;PMS_P2;Temp;Humidity;BMP_temperature;BMP_pressure;BME280_temperature;BME280_humidity;BME280_pressure;Samples;Min_cycle;Max_cycle;Signal;HPM_P1;HPM_P2
2022/09/19 00:01:17;;;;;;;0.62;0.37;;;;;;;11.58;72.63;150563.58;1785922;80;21052;-61
2022/09/19 00:03:49;;;;;;;2.35;0.42;;;;;;;11.56;72.77;150558.39;1775891;80;21121;-61
2022/09/19 00:06:15;;;;;;;0.53;0.33;;;;;;;11.54;72.93;150554.53;1783529;80;21049;-62
2022/09/19 00:08:44;;;;;;;0.65;0.40;;;;;;;11.54;72.90;150554.53;1773157;80;21051;-66
2022/09/19 00:11:14;;;;;;;0.50;0.30;;;;;;;11.53;72.89;150551.94;1776631;80;21367;-66
2022/09/19 00:13:45;;;;;;;3.52;0.57;;;;;;;11.53;73.00;150551.94;1786128;80;21356;-64
2022/09/19 00:16:13;;;;;;;3.83;0.50;;;;;;;11.53;73.04;150550.61;1776246;80;22088;-66
2022/09/19 00:18:41;;;;;;;0.93;0.50;;;;;;;11.52;73.12;150549.33;1778266;80;20980;-65
2022/09/19 00:21:09;;;;;;;0.82;0.42;;;;;;;11.51;73.53;150545.42;1778728;79;21022;-65
2022/09/19 00:26:21;;;;;;;;;;;;;;;11.46;73.58;150535.03;1785119;80;21119;-66
2022/09/19 00:28:48;;;;;;;1.65;0.57;;;;;;;11.45;73.68;150531.12;1775847;80;21198;-66
2022/09/19 00:31:19;;;;;;;1.98;0.78;;;;;;;11.43;73.66;150527.25;1776064;80;21045;-64
2022/09/19 00:33:48;;;;;;;0.40;0.40;;;;;;;11.42;73.60;150523.34;1778945;80;21028;-61
2022/09/19 00:36:16;;;;;;;1.07;0.40;;;;;;;11.42;73.58;150523.34;1775553;80;21044;-61
2022/09/19 00:38:44;;;;;;;0.60;0.40;;;;;;;11.42;73.70;150524.66;1786473;79;20986;-61
2022/09/19 00:41:17;;;;;;;0.60;0.50;;;;;;;11.39;73.77;150516.88;1782246;80;21865;-61
2022/09/19 00:43:56;;;;;;;1.30;0.23;;;;;;;11.38;74.00;150512.95;1785844;79;21053;-62
2022/09/19 00:46:26;;;;;;;0.95;0.40;;;;;;;11.35;74.22;150506.44;1778775;80;21031;-65
2022/09/19 00:49:01;;;;;;;0.57;0.40;;;;;;;11.33;74.43;150501.27;1778315;80;21425;-66
2022/09/19 00:51:38;;;;;;;2.75;0.65;;;;;;;11.34;74.77;150503.86;1786734;80;21439;-65
2022/09/19 00:54:16;;;;;;;0.95;0.40;;;;;;;11.37;75.27;150511.64;1785619;80;22172;-66
2022/09/19 00:56:46;;;;;;;0.50;0.40;;;;;;;11.39;75.36;150515.56;1765161;80;21027;-66
2022/09/19 00:59:12;;;;;;;1.07;0.35;;;;;;;11.42;75.83;150524.66;1782049;80;21085;-67
2022/09/19 01:01:40;;;;;;;0.78;0.30;;;;;;;11.44;75.96;150529.84;1786051;80;21108;-65
2022/09/19 01:04:18;;;;;;;0.55;0.30;;;;;;;11.49;76.45;150540.22;1782743;80;21036;-65
2022/09/19 01:07:26;;;;;;;0.80;0.60;;;;;;;11.54;76.66;150553.20;1763515;80;22055;-65
2022/09/19 01:10:26;;;;;;;0.93;0.40;;;;;;;11.60;76.97;150568.78;1776770;80;21030;-65
2022/09/19 01:13:14;;;;;;;0.72;0.40;;;;;;;11.67;77.46;150586.98;1786241;80;21026;-61
2022/09/19 01:16:05;;;;;;;0.78;0.40;;;;;;;11.74;77.68;150605.16;1778287;79;21096;-61
2022/09/19 01:18:44;;;;;;;2.72;0.60;;;;;;;11.79;77.68;150615.53;1784424;80;20969;-61
2022/09/19 01:21:39;;;;;;;1.02;0.40;;;;;;;11.84;77.54;150628.56;1782156;80;21061;-61
2022/09/19 01:24:30;;;;;;;2.77;0.30;;;;;;;11.88;77.41;150638.94;1786572;80;22117;-61
2022/09/19 01:27:40;;;;;;;0.98;0.30;;;;;;;11.89;77.48;150641.53;1784787;80;21009;-66
2022/09/19 01:30:11;;;;;;;1.67;0.20;;;;;;;11.84;77.55;150629.83;1767196;80;21032;-65
2022/09/19 01:33:05;;;;;;;1.00;0.62;;;;;;;11.82;77.86;150623.31;1780200;80;21022;-66
2022/09/19 01:35:37;;;;;;;0.30;0.30;;;;;;;11.73;78.05;150602.56;1779872;80;21189;-61
2022/09/19 01:38:13;;;;;;;0.90;0.40;;;;;;;11.66;78.23;150584.39;1774966;80;21012;-61
2022/09/19 01:40:41;;;;;;;0.68;0.40;;;;;;;11.59;78.23;150566.17;1774100;80;21011;-62
2022/09/19 01:43:14;;;;;;;0.42;0.30;;;;;;;11.54;78.30;150553.20;1779561;80;21020;-62
2022/09/19 01:45:41;;;;;;;4.17;0.40;;;;;;;11.50;78.35;150542.81;1771407;80;21347;-61
2022/09/19 01:48:29;;;;;;;2.25;0.35;;;;;;;11.47;78.47;150536.31;1781449;80;21489;-61
2022/09/19 01:51:28;;;;;;;1.67;0.30;;;;;;;11.43;78.38;150525.94;1775189;80;21499;-61
2022/09/19 01:54:36;;;;;;;1.75;0.50;;;;;;;11.40;78.32;150519.47;1780955;80;21465;-60
2022/09/19 01:57:31;;;;;;;0.95;0.50;;;;;;;11.37;78.15;150511.64;1784169;80;21554;-60
2022/09/19 02:00:15;;;;;;;3.22;0.70;;;;;;;11.38;77.82;150512.95;1783130;80;21082;-60
2022/09/19 02:03:03;;;;;;;0.55;0.35;;;;;;;11.39;77.53;150516.88;1772989;80;21577;-63
2022/09/19 02:06:02;;;;;;;0.93;0.50;;;;;;;11.39;77.40;150515.56;1774831;80;21077;-62
2022/09/19 02:08:35;;;;;;;1.05;0.50;;;;;;;11.36;77.41;150509.05;1778647;80;21448;-61
2022/09/19 02:11:14;;;;;;;1.90;0.70;;;;;;;11.33;77.39;150501.27;1768090;80;21044;-60
2022/09/19 02:13:48;;;;;;;1.90;0.40;;;;;;;11.28;77.40;150488.28;1769569;80;21101;-61
2022/09/19 02:16:20;;;;;;;1.35;0.50;;;;;;;11.27;77.33;150487.02;1740992;80;21081;-62
2022/09/19 02:18:54;;;;;;;3.62;0.70;;;;;;;11.26;77.27;150483.09;1780420;80;21486;-63
2022/09/19 02:21:48;;;;;;;1.55;0.60;;;;;;;11.25;77.16;150481.78;1780287;80;21042;-62
2022/09/19 02:24:17;;;;;;;0.85;0.50;;;;;;;11.26;76.97;150483.09;1776886;80;20965;-60
2022/09/19 02:26:48;;;;;;;2.80;0.50;;;;;;;11.25;76.92;150480.50;1773376;80;20929;-61
2022/09/19 02:29:14;;;;;;;2.95;0.65;;;;;;;11.26;76.84;150483.09;1771925;80;21724;-61
2022/09/19 02:31:40;;;;;;;0.93;0.57;;;;;;;11.26;76.83;150483.09;1777000;80;21093;-66
2022/09/19 02:34:07;;;;;;;2.08;0.60;;;;;;;11.25;76.82;150480.50;1778142;80;21037;-65
2022/09/19 02:36:46;;;;;;;1.50;0.80;;;;;;;11.24;76.86;150479.19;1771944;80;21400;-65
2022/09/19 02:39:42;;;;;;;1.17;0.45;;;;;;;11.23;76.84;150475.31;1776641;80;21022;-65
2022/09/19 02:42:22;;;;;;;3.20;0.68;;;;;;;11.22;76.97;150472.72;1778481;80;21097;-64
2022/09/19 02:45:07;;;;;;;0.60;0.50;;;;;;;11.20;77.06;150467.53;1772187;80;21076;-61
2022/09/19 02:47:50;;;;;;;0.53;0.50;;;;;;;11.18;77.31;150463.63;1771700;80;21049;-61
2022/09/19 02:50:35;;;;;;;4.33;0.60;;;;;;;11.15;77.51;150457.11;1773991;80;21064;-65
2022/09/19 02:53:04;;;;;;;1.35;0.60;;;;;;;11.13;77.73;150451.92;1777155;80;21093;-65
2022/09/19 02:55:35;;;;;;;2.98;0.70;;;;;;;11.11;78.03;150446.73;1774671;80;21555;-65
2022/09/19 02:58:02;;;;;;;0.80;0.50;;;;;;;11.09;78.11;150441.55;1776202;80;21006;-65
2022/09/19 03:00:31;;;;;;;1.42;0.80;;;;;;;11.09;78.41;150440.28;1754425;80;21112;-66
2022/09/19 03:04:11;;;;;;;1.62;0.70;;;;;;;11.09;78.51;150441.55;1773537;80;21487;-65
2022/09/19 03:05:34;;;;;;;1.12;0.50;;;;;;;11.08;78.59;150438.94;1768926;80;21112;-67
2022/09/19 03:08:05;;;;;;;1.10;0.75;;;;;;;11.09;78.67;150441.55;1773732;80;21123;-66
2022/09/19 03:10:35;;;;;;;3.37;0.95;;;;;;;11.09;78.90;150441.55;1775992;79;21085;-66
2022/09/19 03:13:08;;;;;;;1.57;0.53;;;;;;;11.06;78.90;150433.77;1778237;80;20923;-66
2022/09/19 03:15:52;;;;;;;2.80;0.53;;;;;;;11.03;79.00;150425.98;1773378;80;21014;-66
2022/09/19 03:18:21;;;;;;;2.65;0.68;;;;;;;11.02;79.02;150423.37;1771041;79;21068;-62
2022/09/19 03:20:55;;;;;;;2.20;0.70;;;;;;;10.99;79.27;150415.59;1769083;80;21920;-65
2022/09/19 03:23:27;;;;;;;1.32;0.55;;;;;;;10.94;79.39;150402.58;1739626;80;21096;-61
2022/09/19 03:25:54;;;;;;;1.80;0.62;;;;;;;10.89;79.62;150392.22;1773247;80;21516;-61
2022/09/19 03:28:22;;;;;;;0.50;0.50;;;;;;;10.85;79.84;150380.56;1777238;80;21089;-66
2022/09/19 03:30:51;;;;;;;3.70;0.82;;;;;;;10.80;80.26;150368.87;1775984;80;20982;-61
2022/09/19 03:33:19;;;;;;;1.27;0.62;;;;;;;10.76;80.51;150358.50;1777196;79;21610;-61
2022/09/19 03:35:48;;;;;;;2.45;0.70;;;;;;;10.74;80.66;150353.31;1772512;80;21013;-61
2022/09/19 03:38:14;;;;;;;1.10;0.65;;;;;;;10.72;80.84;150348.06;1768618;80;21104;-61
2022/09/19 03:40:41;;;;;;;1.15;0.60;;;;;;;10.70;81.09;150342.88;1778007;79;21065;-62
2022/09/19 03:43:08;;;;;;;1.12;0.60;;;;;;;10.68;81.37;150339.02;1775970;80;21076;-62
2022/09/19 03:45:36;;;;;;;2.00;0.80;;;;;;;10.67;81.66;150336.42;1779979;80;21225;-61
2022/09/19 03:48:04;;;;;;;3.75;0.60;;;;;;;10.66;81.85;150332.52;1776660;79;20982;-62
2022/09/19 03:50:32;;;;;;;1.10;0.62;;;;;;;10.66;82.04;150332.52;1773269;80;21430;-60
2022/09/19 03:53:01;;;;;;;3.72;0.70;;;;;;;10.68;82.18;150339.02;1769995;80;21533;-61
2022/09/19 03:55:27;;;;;;;1.85;0.60;;;;;;;10.72;82.31;150349.39;1778237;80;21037;-60
2022/09/19 03:57:54;;;;;;;0.88;0.60;;;;;;;10.80;82.38;150368.87;1769140;80;21270;-60
2022/09/19 04:00:22;;;;;;;2.15;0.50;;;;;;;10.84;82.32;150379.23;1775932;80;21527;-62
2022/09/19 04:02:49;;;;;;;2.30;1.00;;;;;;;10.92;82.17;150398.72;1768966;80;21056;-61
2022/09/19 04:05:16;;;;;;;4.42;1.10;;;;;;;10.99;81.90;150416.87;1739468;80;20959;-65
2022/09/19 04:07:43;;;;;;;5.35;0.85;;;;;;;11.09;81.30;150441.55;1776373;80;21120;-65
2022/09/19 04:10:10;;;;;;;4.60;1.00;;;;;;;11.23;80.78;150475.31;1780867;79;21602;-65
2022/09/19 04:12:40;;;;;;;3.25;0.88;;;;;;;11.36;80.25;150509.05;1781217;80;21053;-66
2022/09/19 04:15:09;;;;;;;4.58;0.53;;;;;;;11.51;79.08;150545.42;1781468;80;21100;-64
2022/09/19 04:17:36;;;;;;;5.87;0.78;;;;;;;11.63;78.63;150576.61;1782158;80;20905;-66
2022/09/19 04:20:05;;;;;;;3.17;0.90;;;;;;;11.76;77.59;150609.06;1779341;79;21111;-65
2022/09/19 04:22:37;;;;;;;2.02;0.88;;;;;;;11.89;76.85;150642.81;1777635;80;22174;-61
2022/09/19 04:25:14;;;;;;;5.85;1.07;;;;;;;11.98;76.08;150664.89;1694725;84;21109;-61
2022/09/19 04:28:00;;;;;;;2.37;1.30;;;;;;;12.09;75.71;150690.95;1781453;80;21034;-60
2022/09/19 04:30:27;;;;;;;0.80;0.72;;;;;;;12.18;75.31;150714.31;1782152;79;21010;-60
2022/09/19 04:32:55;;;;;;;2.33;0.50;;;;;;;12.26;74.84;150735.09;1781170;79;21054;-61
2022/09/19 04:35:22;;;;;;;1.92;0.60;;;;;;;12.34;74.30;150754.58;1779941;79;21259;-62
2022/09/19 04:37:49;;;;;;;2.10;0.70;;;;;;;12.44;73.73;150780.59;1781681;79;20992;-62
2022/09/19 04:40:18;;;;;;;0.90;0.50;;;;;;;12.55;73.13;150807.89;1780874;80;21533;-64
2022/09/19 04:42:45;;;;;;;11.22;0.90;;;;;;;12.65;72.38;150831.25;1781878;80;21079;-65
2022/09/19 04:45:20;;;;;;;3.20;0.62;;;;;;;12.81;71.83;150872.86;1780810;79;21039;-65
2022/09/19 04:47:48;;;;;;;5.22;0.57;;;;;;;13.00;70.58;150919.66;1774043;80;21124;-66
2022/09/19 04:50:17;;;;;;;1.30;0.70;;;;;;;13.18;69.45;150965.16;1782239;79;21013;-62
2022/09/19 04:52:46;;;;;;;1.07;0.40;;;;;;;13.34;68.20;151005.44;1779633;79;20980;-61
2022/09/19 04:55:13;;;;;;;1.37;0.70;;;;;;;13.50;67.12;151044.52;1782073;80;21073;-62
2022/09/19 04:57:40;;;;;;;1.40;0.55;;;;;;;13.62;66.90;151075.75;1780315;79;21009;-64
2022/09/19 05:00:10;;;;;;;1.42;0.68;;;;;;;13.96;66.57;151161.56;1780823;80;21917;-62
2022/09/19 05:02:38;;;;;;;2.77;0.60;;;;;;;14.43;65.35;151278.66;1781656;79;20995;-61
2022/09/19 05:05:07;;;;;;;3.72;0.80;;;;;;;14.98;63.70;151417.95;1781347;79;21521;-61
2022/09/19 05:07:34;;;;;;;1.87;0.80;;;;;;;15.78;61.56;151617.17;1780845;79;21033;-61
2022/09/19 05:10:03;;;;;;;2.15;0.60;;;;;;;16.50;59.08;151798.31;1775820;80;21063;-62
2022/09/19 05:12:33;;;;;;;2.08;0.70;;;;;;;17.00;56.97;151926.06;1773329;80;21213;-61
2022/09/19 05:14:59;;;;;;;1.50;0.78;;;;;;;17.25;55.21;151987.36;1773279;80;21100;-62
2022/09/19 05:17:28;;;;;;;3.92;1.10;;;;;;;17.44;53.95;152035.58;1769101;80;21013;-61
2022/09/19 05:19:54;;;;;;;0.98;0.60;;;;;;;17.55;52.69;152062.97;1770263;80;21073;-61
2022/09/19 05:22:21;;;;;;;1.90;0.60;;;;;;;17.43;52.19;152034.31;1768441;80;21104;-65
2022/09/19 05:24:48;;;;;;;2.75;0.50;;;;;;;17.14;52.54;151961.31;1775253;79;21179;-66
2022/09/19 05:27:15;;;;;;;0.90;0.68;;;;;;;16.86;53.13;151890.84;1774787;80;21084;-65
2022/09/19 05:29:43;;;;;;;7.03;0.60;;;;;;;16.68;53.45;151843.91;1779597;80;20982;-66
2022/09/19 05:32:10;;;;;;;0.42;0.40;;;;;;;16.54;53.69;151810.06;1770169;78;21061;-65
2022/09/19 05:34:53;;;;;;;3.08;0.65;;;;;;;16.41;53.83;151777.48;1765407;80;21037;-62
2022/09/19 05:37:24;;;;;;;4.80;0.85;;;;;;;16.36;53.76;151763.14;1773641;79;21093;-61
2022/09/19 05:39:56;;;;;;;3.08;0.70;;;;;;;16.30;53.66;151750.12;1770327;80;21449;-62
2022/09/19 05:42:28;;;;;;;1.80;0.65;;;;;;;16.23;53.48;151730.58;1734038;80;21068;-63
2022/09/19 05:44:55;;;;;;;2.27;0.70;;;;;;;16.10;53.90;151698.02;1772521;80;21490;-67
2022/09/19 05:47:22;;;;;;;10.30;1.10;;;;;;;16.02;53.92;151679.73;1774749;80;21032;-62
2022/09/19 05:49:50;;;;;;;12.65;1.17;;;;;;;16.03;53.38;151682.39;1776409;79;21912;-61
2022/09/19 05:55:08;;;;;;;4.97;0.80;;;;;;;16.07;53.35;151690.19;1768526;80;21030;-66
2022/09/19 05:57:36;;;;;;;1.22;0.78;;;;;;;16.11;52.93;151700.61;1767814;80;21064;-66
2022/09/19 06:00:05;;;;;;;2.50;0.62;;;;;;;16.13;52.45;151705.81;1768568;79;21077;-66
2022/09/19 06:02:35;;;;;;;3.42;0.70;;;;;;;16.17;52.41;151716.22;1772970;79;21086;-66
2022/09/19 06:05:02;;;;;;;4.62;0.80;;;;;;;16.28;52.46;151744.91;1769549;79;21087;-63
2022/09/19 06:07:32;;;;;;;1.87;0.80;;;;;;;16.40;52.08;151773.55;1772439;79;21042;-62
2022/09/19 06:10:00;;;;;;;6.85;0.80;;;;;;;16.46;51.97;151789.19;1759198;79;21508;-63
2022/09/19 06:12:27;;;;;;;2.60;0.60;;;;;;;16.58;51.65;151820.47;1770069;80;21028;-61
2022/09/19 06:14:55;;;;;;;1.32;0.62;;;;;;;16.76;51.53;151864.78;1767022;80;21929;-63
2022/09/19 06:17:22;;;;;;;2.08;0.85;;;;;;;16.78;51.22;151868.67;1704771;81;21778;-62
2022/09/19 06:19:49;;;;;;;1.07;0.60;;;;;;;16.85;50.83;151888.23;1775165;80;21420;-63
2022/09/19 06:22:23;;;;;;;1.30;0.68;;;;;;;17.01;50.53;151928.67;1765298;80;26603;-63
2022/09/19 06:24:52;;;;;;;3.22;0.60;;;;;;;17.20;49.82;151974.33;1769127;78;21390;-63
2022/09/19 06:27:19;;;;;;;1.47;0.80;;;;;;;17.21;49.53;151976.94;1765951;80;21218;-62
2022/09/19 06:29:47;;;;;;;3.87;0.70;;;;;;;17.17;49.76;151969.13;1771283;78;21048;-66
2022/09/19 06:32:25;;;;;;;1.90;0.60;;;;;;;17.17;49.98;151969.13;1766741;80;21115;-65
2022/09/19 06:35:00;;;;;;;0.93;0.50;;;;;;;17.35;48.72;152013.41;1755102;80;21498;-67
2022/09/19 06:37:29;;;;;;;2.40;0.62;;;;;;;17.80;47.80;152125.61;1768670;78;21562;-64
2022/09/19 06:39:56;;;;;;;1.00;0.60;;;;;;;18.09;47.06;152199.95;1772800;78;21839;-65
2022/09/19 06:42:34;;;;;;;2.27;0.75;;;;;;;18.29;46.36;152249.53;1749058;80;21028;-66
2022/09/19 06:45:16;;;;;;;1.77;0.60;;;;;;;18.60;45.78;152329.13;1767105;80;21109;-66
2022/09/19 06:47:47;;;;;;;1.57;0.62;;;;;;;19.30;44.84;152504.06;1761314;78;21021;-65
2022/09/19 06:50:16;;;;;;;0.95;0.50;;;;;;;19.55;43.55;152566.72;1767667;78;21033;-66
2022/09/19 06:52:52;;;;;;;3.17;0.78;;;;;;;19.47;43.39;152547.19;1764356;79;21075;-66
2022/09/19 06:55:19;;;;;;;5.08;0.80;;;;;;;19.16;43.77;152470.16;1767461;80;21079;-65
2022/09/19 06:57:57;;;;;;;4.08;0.90;;;;;;;18.86;44.53;152393.09;1771545;78;21076;-66
2022/09/19 07:00:25;;;;;;;4.60;0.70;;;;;;;18.73;44.62;152360.47;1709186;83;22045;-66
2022/09/19 07:03:00;;;;;;;3.72;1.00;;;;;;;18.57;45.11;152320.03;1764460;80;20949;-66
2022/09/19 07:05:29;;;;;;;2.17;0.72;;;;;;;18.41;45.08;152279.53;1761895;79;21184;-64
2022/09/19 07:07:58;;;;;;;2.15;0.62;;;;;;;18.28;44.89;152248.25;1761531;80;21565;-64
2022/09/19 07:10:26;;;;;;;1.77;0.80;;;;;;;18.17;45.37;152220.86;1757814;80;21098;-65
2022/09/19 07:13:01;;;;;;;2.02;0.78;;;;;;;18.07;45.20;152194.75;1760796;79;21653;-65
2022/09/19 07:15:26;;;;;;;2.33;0.68;;;;;;;18.02;45.22;152183.03;1756577;80;21056;-66
2022/09/19 07:17:55;;;;;;;2.77;0.72;;;;;;;17.96;45.14;152167.31;1758740;79;21311;-67
2022/09/19 07:20:23;;;;;;;1.07;0.75;;;;;;;17.96;45.17;152167.31;1755817;80;21475;-66
2022/09/19 07:23:04;;;;;;;2.17;0.80;;;;;;;18.07;44.75;152194.75;1763084;79;21026;-65
2022/09/19 07:25:49;;;;;;;1.52;0.50;;;;;;;18.04;44.94;152188.25;1761848;80;21107;-66
2022/09/19 07:28:18;;;;;;;0.98;0.47;;;;;;;17.97;44.74;152169.91;1761071;80;21601;-65
2022/09/19 07:30:46;;;;;;;2.98;0.70;;;;;;;17.95;44.83;152164.70;1761214;80;21240;-62
2022/09/19 07:33:19;;;;;;;1.77;0.90;;;;;;;17.92;44.94;152156.88;1722691;82;21072;-62
2022/09/19 07:35:46;;;;;;;1.75;0.75;;;;;;;17.94;44.78;152162.09;1724727;81;20957;-64
2022/09/19 07:38:17;;;;;;;1.45;0.60;;;;;;;18.03;44.48;152185.66;1690968;83;21147;-62
2022/09/19 07:40:55;;;;;;;1.60;0.50;;;;;;;18.15;44.20;152214.31;1689779;84;21040;-62
2022/09/19 07:43:26;;;;;;;0.23;0.23;;;;;;;18.31;43.69;152256.08;1699282;83;21194;-61
2022/09/19 07:45:55;;;;;;;1.15;0.60;;;;;;;18.41;43.25;152280.87;1702587;83;21083;-62
2022/09/19 07:48:43;;;;;;;;;;;;;;;18.47;43.40;152295.23;1692667;84;21052;-63
2022/09/19 07:51:21;;;;;;;2.20;0.50;;;;;;;18.51;43.61;152304.34;1719965;83;20480;-62
2022/09/19 07:53:49;;;;;;;0.85;0.50;;;;;;;18.48;43.50;152297.84;1724016;83;21003;-63
2022/09/19 07:56:16;;;;;;;1.42;0.70;;;;;;;18.47;43.37;152296.52;1724449;81;21203;-63
2022/09/19 07:58:45;;;;;;;1.15;0.50;;;;;;;18.57;43.16;152321.31;1723482;83;21404;-61
2022/09/19 08:01:12;;;;;;;4.22;1.22;;;;;;;18.66;42.82;152342.16;1723636;83;21119;-62
2022/09/19 08:03:57;;;;;;;1.02;0.70;;;;;;;18.66;42.38;152342.16;1712951;81;21075;-61
2022/09/19 08:06:29;;;;;;;5.67;0.60;;;;;;;18.55;42.36;152316.09;1707050;83;21039;-67
2022/09/19 08:08:58;;;;;;;1.00;0.30;;;;;;;18.54;42.62;152312.16;1713949;81;21245;-66
2022/09/19 08:11:30;;;;;;;1.85;0.40;;;;;;;18.58;42.00;152323.91;1688668;83;21036;-65
2022/09/19 08:13:59;;;;;;;2.10;0.70;;;;;;;18.57;41.39;152320.03;1679549;83;21114;-68
2022/09/19 08:16:26;;;;;;;4.90;1.10;;;;;;;18.47;41.37;152295.23;1715126;82;21056;-65
2022/09/19 08:18:53;;;;;;;0.85;0.40;;;;;;;18.36;41.71;152266.50;1726889;82;21091;-66
2022/09/19 08:21:20;;;;;;;1.45;0.40;;;;;;;18.38;41.97;152273.05;1722416;82;21485;-65
2022/09/19 08:23:47;;;;;;;0.50;0.50;;;;;;;18.56;41.96;152317.38;1722171;82;20958;-65
2022/09/19 08:26:14;;;;;;;0.50;0.40;;;;;;;18.72;42.06;152357.86;1726727;82;21056;-65
2022/09/19 08:28:41;;;;;;;1.27;0.40;;;;;;;18.79;42.27;152376.11;1723716;82;21052;-65
2022/09/19 08:31:09;;;;;;;0.47;0.37;;;;;;;18.83;42.06;152385.27;1716683;82;20987;-66
2022/09/19 08:33:38;;;;;;;0.30;0.30;;;;;;;18.78;41.16;152373.50;1716072;82;22707;-67
2022/09/19 08:36:06;;;;;;;0.40;0.40;;;;;;;18.61;41.45;152331.73;1696153;82;20929;-66
2022/09/19 08:38:33;;;;;;;0.72;0.40;;;;;;;18.52;41.98;152306.94;1701962;83;21088;-65
2022/09/19 08:41:22;;;;;;;0.30;0.30;;;;;;;18.61;41.82;152331.73;1698984;83;21091;-66
2022/09/19 08:44:03;;;;;;;0.45;0.42;;;;;;;18.74;41.61;152364.36;1696812;83;20979;-67
2022/09/19 08:46:43;;;;;;;1.85;0.30;;;;;;;18.89;41.00;152400.91;1703258;83;21316;-65
2022/09/19 08:49:15;;;;;;;1.80;0.40;;;;;;;19.04;39.84;152438.81;1672756;83;21191;-67
2022/09/19 08:52:15;;;;;;;0.25;0.25;;;;;;;19.14;40.14;152463.61;1671891;84;21071;-65
2022/09/19 08:54:45;;;;;;;0.47;0.47;;;;;;;19.17;40.19;152472.77;1666113;83;21446;-66
2022/09/19 08:57:26;;;;;;;0.60;0.40;;;;;;;19.10;40.32;152454.45;1708180;83;21043;-64
2022/09/19 09:00:01;;;;;;;0.53;0.30;;;;;;;19.08;40.39;152449.23;1691908;82;21123;-66
2022/09/19 09:03:03;;;;;;;0.53;0.35;;;;;;;19.14;40.46;152464.94;1723176;82;21206;-66
2022/09/19 09:05:51;;;;;;;2.80;0.60;;;;;;;19.23;40.19;152485.80;1717301;82;22099;-66
2022/09/19 09:08:43;;;;;;;1.05;0.45;;;;;;;19.31;39.50;152506.67;1720481;82;21117;-65
2022/09/19 09:11:35;;;;;;;0.40;0.40;;;;;;;19.38;39.31;152524.98;1728326;82;21789;-65
2022/09/19 09:14:44;;;;;;;1.05;0.65;;;;;;;19.39;39.20;152526.27;1735979;80;21264;-66
2022/09/19 09:17:46;;;;;;;0.62;0.47;;;;;;;19.36;39.35;152519.77;1725205;82;21109;-65
2022/09/19 09:20:27;;;;;;;0.90;0.40;;;;;;;19.37;38.59;152522.38;1722222;80;21526;-67
2022/09/19 09:23:15;;;;;;;0.30;0.30;;;;;;;19.41;38.19;152532.81;1701757;82;21039;-65
2022/09/19 09:25:49;;;;;;;0.78;0.40;;;;;;;19.40;38.36;152530.20;1710001;80;21401;-65
2022/09/19 09:28:44;;;;;;;0.68;0.30;;;;;;;19.44;38.65;152539.31;1689180;82;21241;-64
2022/09/19 09:31:32;;;;;;;0.40;0.33;;;;;;;19.52;38.63;152560.22;1688363;81;21079;-66
2022/09/19 09:34:07;;;;;;;1.37;0.50;;;;;;;19.54;38.38;152565.44;1720358;80;21659;-65
2022/09/19 09:36:42;;;;;;;3.55;0.37;;;;;;;19.51;38.36;152557.62;1723484;81;21094;-67
2022/09/19 09:39:16;;;;;;;6.67;0.80;;;;;;;19.50;38.58;152553.69;1730087;82;21039;-66
2022/09/19 09:41:52;;;;;;;0.47;0.30;;;;;;;19.47;38.62;152547.19;1691462;84;21168;-65
2022/09/19 09:44:47;;;;;;;0.65;0.40;;;;;;;19.45;37.99;152543.25;1663141;83;21730;-66
2022/09/19 09:47:43;;;;;;;;;;;;;;;19.50;37.91;152553.69;1691639;84;21172;-66
2022/09/19 09:50:32;;;;;;;0.50;0.47;;;;;;;19.58;38.06;152575.88;1725389;82;20230;-65
2022/09/19 09:53:39;;;;;;;2.40;0.50;;;;;;;19.55;40.60;152566.72;1728414;82;20991;-62
2022/09/19 09:56:15;;;;;;;2.22;0.78;;;;;;;19.43;42.05;152538.03;1721154;82;21237;-61
2022/09/19 09:59:05;;;;;;;3.83;0.42;;;;;;;19.35;43.05;152517.16;1720070;82;21067;-62
2022/09/19 10:04:59;;;;;;;2.02;0.60;;;;;;;19.36;43.35;152519.77;1671888;84;21177;-62
2022/09/19 10:08:02;;;;;;;0.80;0.50;;;;;;;19.36;42.78;152518.44;1695562;84;21405;-62
2022/09/19 10:10:30;;;;;;;2.93;0.60;;;;;;;19.29;43.04;152501.45;1693092;83;21193;-66
2022/09/19 10:13:02;;;;;;;0.60;0.50;;;;;;;19.23;43.31;152485.80;1706889;81;20909;-67
2022/09/19 10:15:31;;;;;;;0.40;0.30;;;;;;;19.21;43.36;152480.59;1772393;80;21036;-67
2022/09/19 10:18:09;;;;;;;2.08;0.55;;;;;;;19.17;43.59;152472.77;1769730;79;21059;-66
2022/09/19 10:20:52;;;;;;;0.60;0.30;;;;;;;19.21;43.22;152480.59;1770278;80;21056;-66
2022/09/19 10:23:25;;;;;;;1.20;0.60;;;;;;;19.23;42.85;152485.80;1771427;79;21886;-62
2022/09/19 10:26:00;;;;;;;0.40;0.35;;;;;;;19.24;42.51;152489.73;1764952;80;21016;-61
2022/09/19 10:28:41;;;;;;;2.50;0.57;;;;;;;19.22;42.68;152483.19;1775473;80;21113;-62
2022/09/19 10:31:34;;;;;;;0.65;0.40;;;;;;;19.20;43.16;152477.97;1770609;80;21052;-62
2022/09/19 10:34:09;;;;;;;2.45;0.60;;;;;;;19.15;43.26;152466.22;1771015;80;21550;-63
2022/09/19 10:36:33;;;;;;;2.17;0.50;;;;;;;19.11;43.68;152457.06;1772809;80;21186;-61
2022/09/19 10:39:17;;;;;;;1.40;0.42;;;;;;;19.10;43.82;152453.17;1774341;79;21077;-62
2022/09/19 10:41:46;;;;;;;1.77;0.60;;;;;;;19.01;43.26;152430.98;1773492;78;21088;-62
2022/09/19 10:44:23;;;;;;;2.72;0.40;;;;;;;18.89;43.87;152400.91;1777678;80;21101;-62
2022/09/19 10:47:04;;;;;;;1.85;0.47;;;;;;;18.87;44.23;152396.97;1775575;80;20954;-62
2022/09/19 10:49:45;;;;;;;2.72;0.78;;;;;;;18.89;44.57;152400.91;1772451;80;21878;-62
2022/09/19 10:52:22;;;;;;;1.75;0.42;;;;;;;18.91;44.80;152406.13;1776850;80;21066;-63
2022/09/19 10:54:51;;;;;;;0.33;0.33;;;;;;;18.90;44.91;152403.53;1773158;80;21385;-61
2022/09/19 10:57:41;;;;;;;2.00;0.40;;;;;;;18.91;44.87;152406.13;1772931;80;21024;-62
2022/09/19 11:00:22;;;;;;;2.17;0.55;;;;;;;18.93;44.79;152410.06;1770894;80;21053;-62
2022/09/19 11:03:04;;;;;;;2.15;0.40;;;;;;;18.91;44.89;152406.13;1770945;80;21443;-63
2022/09/19 11:05:33;;;;;;;2.00;0.40;;;;;;;18.81;45.06;152381.33;1706141;83;21097;-63
2022/09/19 11:08:01;;;;;;;1.15;0.65;;;;;;;18.72;45.52;152357.86;1770686;80;20950;-63
2022/09/19 11:10:38;;;;;;;2.42;0.40;;;;;;;18.67;45.76;152344.77;1765188;80;21823;-63
2022/09/19 11:13:20;;;;;;;5.12;0.98;;;;;;;18.61;46.21;152331.73;1761894;79;21092;-66
2022/09/19 11:16:05;;;;;;;1.12;0.57;;;;;;;18.55;46.66;152316.09;1765725;80;21470;-64
2022/09/19 11:18:43;;;;;;;1.75;0.40;;;;;;;18.54;47.50;152313.48;1772883;80;21034;-66
2022/09/19 11:21:33;;;;;;;1.50;0.40;;;;;;;18.59;46.79;152325.23;1772993;78;20877;-65
2022/09/19 11:24:32;;;;;;;0.88;0.42;;;;;;;18.56;45.78;152318.70;1772425;79;21641;-65
2022/09/19 11:27:41;;;;;;;0.90;0.40;;;;;;;18.54;45.48;152312.16;1768792;80;21045;-63
2022/09/19 11:30:20;;;;;;;4.20;0.70;;;;;;;18.46;45.80;152292.62;1778475;80;21845;-66
2022/09/19 11:33:35;;;;;;;0.53;0.45;;;;;;;18.43;44.94;152286.09;1775076;79;20918;-65
2022/09/19 11:36:30;;;;;;;1.02;0.50;;;;;;;18.44;45.56;152287.36;1761667;79;21029;-65
2022/09/19 11:39:23;;;;;;;3.87;0.72;;;;;;;18.39;45.96;152275.66;1772260;78;21030;-66
2022/09/19 11:42:05;;;;;;;0.37;0.37;;;;;;;18.38;46.24;152271.72;1768454;78;21072;-63
2022/09/19 11:44:51;;;;;;;3.20;0.50;;;;;;;18.36;46.28;152266.50;1772173;79;21792;-64
2022/09/19 11:47:41;;;;;;;5.20;0.70;;;;;;;18.32;46.70;152258.69;1772717;78;21417;-63
2022/09/19 11:50:24;;;;;;;1.60;0.50;;;;;;;18.35;46.86;152265.22;1770897;80;21013;-64
2022/09/19 11:53:08;;;;;;;1.65;0.78;;;;;;;18.39;47.35;152275.66;1774453;79;21560;-63
2022/09/19 11:56:02;;;;;;;2.02;0.40;;;;;;;18.35;47.12;152265.22;1769354;80;21072;-62
2022/09/19 11:58:51;;;;;;;3.90;0.47;;;;;;;18.27;47.51;152245.66;1774375;79;21231;-63
2022/09/19 12:01:42;;;;;;;2.92;0.40;;;;;;;18.20;47.47;152227.36;1776289;79;21049;-63
2022/09/19 12:04:45;;;;;;;2.20;0.53;;;;;;;18.15;47.93;152214.31;1769375;80;21107;-64
2022/09/19 12:07:41;;;;;;;3.00;0.60;;;;;;;18.11;48.45;152203.89;1766966;80;21050;-64
2022/09/19 12:10:25;;;;;;;0.78;0.53;;;;;;;18.09;48.84;152198.69;1766012;80;21120;-65
2022/09/19 12:13:03;;;;;;;1.27;0.55;;;;;;;18.10;48.33;152201.28;1774798;80;21543;-63
2022/09/19 12:15:35;;;;;;;0.88;0.30;;;;;;;18.13;47.95;152209.11;1774086;80;21110;-62